createdAt,value
2023-03-29T00:01:01.169Z,-0.40
2023-03-29T00:03:50.176Z,-0.50
2023-03-29T00:06:38.316Z,-0.50
2023-03-29T00:09:26.860Z,-0.60
2023-03-29T00:12:14.352Z,-0.60
2023-03-29T00:15:02.137Z,-0.60
2023-03-29T00:17:50.073Z,-0.60
2023-03-29T00:20:37.576Z,-0.70
2023-03-29T00:23:25.826Z,-0.70
2023-03-29T00:26:13.324Z,-0.70
2023-03-29T00:29:00.828Z,-0.70
2023-03-29T00:31:54.052Z,-0.80
2023-03-29T00:34:45.998Z,-0.80
2023-03-29T00:37:33.992Z,-0.80
2023-03-29T00:40:21.587Z,-0.90
2023-03-29T00:43:15.387Z,-0.80
2023-03-29T00:46:02.996Z,-0.80
2023-03-29T00:48:57.106Z,-0.80
2023-03-29T00:51:45.965Z,-0.80
2023-03-29T00:54:38.076Z,-0.70
2023-03-29T00:57:30.316Z,-0.70
2023-03-29T01:00:22.319Z,-0.70
2023-03-29T01:03:24.696Z,-0.70
2023-03-29T01:06:18.468Z,-0.60
2023-03-29T01:09:12.761Z,-0.50
2023-03-29T01:12:10.402Z,-0.50
2023-03-29T01:15:12.567Z,-0.50
2023-03-29T01:18:02.055Z,-0.40
2023-03-29T01:21:17.332Z,-0.40
2023-03-29T01:24:45.581Z,-0.30
2023-03-29T01:27:48.793Z,-0.30
2023-03-29T01:31:08.622Z,-0.30
2023-03-29T01:34:07.671Z,-0.30
2023-03-29T01:37:09.394Z,-0.20
2023-03-29T01:39:56.939Z,-0.20
2023-03-29T01:43:01.873Z,-0.20
2023-03-29T01:46:10.400Z,-0.20
2023-03-29T01:49:53.669Z,-0.20
2023-03-29T01:52:56.837Z,-0.20
2023-03-29T01:55:52.760Z,-0.20
2023-03-29T01:58:46.335Z,-0.20
2023-03-29T02:01:40.521Z,-0.20
2023-03-29T02:04:41.757Z,-0.10
2023-03-29T02:07:32.500Z,-0.10
2023-03-29T02:10:23.364Z,-0.10
2023-03-29T02:13:11.486Z,-0.10
2023-03-29T02:16:02.396Z,-0.10
2023-03-29T02:18:53.241Z,-0.10
2023-03-29T02:21:51.896Z,0.00
2023-03-29T02:24:44.646Z,0.00
2023-03-29T02:27:32.370Z,0.00
2023-03-29T02:30:21.360Z,0.00
2023-03-29T02:33:25.343Z,0.00
2023-03-29T02:36:40.947Z,0.00
2023-03-29T02:39:33.780Z,0.10
2023-03-29T02:42:23.145Z,0.10
2023-03-29T02:45:17.316Z,0.20
2023-03-29T02:48:11.050Z,0.20
2023-03-29T02:51:08.478Z,0.20
2023-03-29T02:54:26.239Z,0.30
2023-03-29T02:57:13.874Z,0.30
2023-03-29T03:00:01.617Z,0.40
2023-03-29T03:02:50.870Z,0.40
2023-03-29T03:05:39.339Z,0.40
2023-03-29T03:08:26.782Z,0.40
2023-03-29T03:11:15.499Z,0.40
2023-03-29T03:14:03.201Z,0.50
2023-03-29T03:16:50.951Z,0.50
2023-03-29T03:19:38.818Z,0.50
2023-03-29T03:22:26.592Z,0.60
2023-03-29T03:25:14.406Z,0.60
2023-03-29T03:28:02.679Z,0.60
2023-03-29T03:30:50.788Z,0.70
2023-03-29T03:33:38.233Z,0.70
2023-03-29T03:36:26.413Z,0.70
2023-03-29T03:39:14.492Z,0.70
2023-03-29T03:42:01.918Z,0.70
2023-03-29T03:44:49.952Z,0.70
2023-03-29T03:47:37.983Z,0.70
2023-03-29T03:50:25.770Z,0.50
2023-03-29T03:53:13.199Z,0.50
2023-03-29T03:56:02.333Z,0.60
2023-03-29T03:58:49.840Z,0.50
2023-03-29T04:01:37.871Z,0.50
2023-03-29T04:04:25.670Z,0.50
2023-03-29T04:07:14.519Z,0.50
2023-03-29T04:10:02.021Z,0.60
2023-03-29T04:12:49.524Z,0.60
2023-03-29T04:15:40.091Z,0.60
2023-03-29T04:18:30.407Z,0.60
2023-03-29T04:21:20.729Z,0.70
2023-03-29T04:24:09.006Z,0.70
2023-03-29T04:26:56.598Z,0.80
2023-03-29T04:29:45.258Z,0.80
2023-03-29T04:32:33.255Z,0.90
2023-03-29T04:35:20.711Z,0.90
2023-03-29T04:38:10.960Z,0.90
2023-03-29T04:41:01.417Z,0.90
2023-03-29T04:43:49.092Z,1.00
2023-03-29T04:46:38.806Z,1.00
2023-03-29T04:49:26.853Z,1.00
2023-03-29T04:52:14.792Z,1.10
2023-03-29T04:55:04.426Z,1.10
2023-03-29T04:57:53.509Z,1.10
2023-03-29T05:00:41.197Z,1.20
2023-03-29T05:03:28.762Z,1.20
2023-03-29T05:06:17.080Z,1.20
2023-03-29T05:09:05.241Z,1.30
2023-03-29T05:11:52.941Z,1.30
2023-03-29T05:14:40.391Z,1.30
2023-03-29T05:17:27.947Z,1.30
2023-03-29T05:20:16.446Z,1.30
2023-03-29T05:23:03.945Z,1.30
2023-03-29T05:25:53.568Z,1.40
2023-03-29T05:28:42.136Z,1.40
2023-03-29T05:31:29.700Z,1.40
2023-03-29T05:34:17.201Z,1.40
2023-03-29T05:37:04.765Z,1.50
2023-03-29T05:39:52.269Z,1.50
2023-03-29T05:42:39.801Z,1.50
2023-03-29T05:45:29.784Z,1.50
2023-03-29T05:48:18.514Z,1.60
2023-03-29T05:51:06.431Z,1.60
2023-03-29T05:53:53.936Z,1.60
2023-03-29T05:56:42.445Z,1.60
2023-03-29T05:59:30.060Z,1.70
2023-03-29T06:02:17.603Z,1.80
2023-03-29T06:05:05.684Z,1.70
2023-03-29T06:07:53.199Z,1.70
2023-03-29T06:10:41.246Z,1.70
2023-03-29T06:13:37.248Z,1.70
2023-03-29T06:16:26.026Z,1.70
2023-03-29T06:19:13.664Z,1.60
2023-03-29T06:22:01.125Z,1.70
2023-03-29T06:24:49.241Z,1.70
2023-03-29T06:27:37.292Z,1.70
2023-03-29T06:30:25.045Z,1.70
2023-03-29T06:33:14.330Z,1.70
2023-03-29T06:36:02.955Z,1.70
2023-03-29T06:38:50.461Z,1.70
2023-03-29T06:41:38.749Z,1.70
2023-03-29T06:44:28.425Z,1.80
2023-03-29T06:47:17.767Z,1.80
2023-03-29T06:50:06.196Z,1.80
2023-03-29T06:52:53.770Z,1.80
2023-03-29T06:55:41.405Z,1.90
2023-03-29T06:58:28.918Z,1.80
2023-03-29T07:01:16.407Z,1.80
2023-03-29T07:04:08.245Z,1.80
2023-03-29T07:07:02.041Z,1.70
2023-03-29T07:09:55.873Z,1.70
2023-03-29T07:12:46.398Z,1.60
2023-03-29T07:15:36.299Z,1.50
2023-03-29T07:18:23.840Z,1.50
2023-03-29T07:21:13.567Z,1.50
2023-03-29T07:24:01.819Z,1.60
2023-03-29T07:27:03.129Z,1.50
2023-03-29T07:29:52.250Z,1.60
2023-03-29T07:32:42.112Z,1.60
2023-03-29T07:35:30.930Z,1.60
2023-03-29T07:38:18.784Z,1.40
2023-03-29T07:41:08.203Z,1.50
2023-03-29T07:43:55.950Z,1.70
2023-03-29T07:46:43.553Z,1.70
2023-03-29T07:49:31.600Z,1.60
2023-03-29T07:52:19.179Z,1.70
2023-03-29T07:55:09.550Z,1.80
2023-03-29T07:57:57.473Z,1.90
2023-03-29T08:00:44.965Z,2.00
2023-03-29T08:03:32.775Z,2.10
2023-03-29T08:06:20.245Z,2.20
2023-03-29T08:09:08.819Z,2.30
2023-03-29T08:11:57.715Z,2.50
2023-03-29T08:14:46.478Z,2.60
2023-03-29T08:17:36.321Z,2.70
2023-03-29T08:20:23.895Z,2.90
2023-03-29T08:23:11.610Z,2.90
2023-03-29T08:25:59.309Z,3.00
2023-03-29T08:28:46.866Z,3.10
2023-03-29T08:31:34.706Z,3.20
2023-03-29T08:34:22.457Z,3.20
2023-03-29T08:37:11.336Z,3.30
2023-03-29T08:39:59.361Z,3.30
2023-03-29T08:43:20.087Z,3.30
2023-03-29T08:46:40.934Z,3.30
2023-03-29T08:49:30.834Z,3.40
2023-03-29T08:52:31.336Z,3.50
2023-03-29T08:55:32.606Z,3.70
2023-03-29T08:58:26.867Z,3.80
2023-03-29T09:01:14.656Z,3.60
2023-03-29T09:04:23.043Z,3.60
2023-03-29T09:07:12.574Z,3.50
2023-03-29T09:10:00.632Z,3.60
2023-03-29T09:13:36.785Z,3.70
2023-03-29T09:16:38.221Z,3.70
2023-03-29T09:19:34.624Z,3.90
2023-03-29T09:22:37.054Z,4.10
2023-03-29T09:26:21.037Z,4.20
2023-03-29T09:29:50.359Z,4.40
2023-03-29T09:33:18.456Z,4.60
2023-03-29T09:36:44.577Z,4.70
2023-03-29T09:39:32.044Z,4.70
2023-03-29T09:42:21.120Z,4.90
2023-03-29T09:45:09.483Z,5.00
2023-03-29T09:48:14.946Z,5.10
2023-03-29T09:51:05.447Z,4.90
2023-03-29T09:53:56.407Z,5.10
2023-03-29T09:56:44.280Z,5.40
2023-03-29T09:59:32.243Z,5.60
2023-03-29T10:02:21.294Z,5.70
2023-03-29T10:05:16.955Z,5.80
2023-03-29T10:08:20.054Z,5.90
2023-03-29T10:11:18.741Z,5.90
2023-03-29T10:14:16.902Z,6.00
2023-03-29T10:17:29.438Z,5.80
2023-03-29T10:20:20.106Z,6.00
2023-03-29T10:23:10.446Z,6.00
2023-03-29T10:25:58.185Z,6.10
2023-03-29T10:28:46.253Z,6.10
2023-03-29T10:31:38.239Z,5.90
2023-03-29T10:34:28.170Z,6.00
2023-03-29T10:37:19.537Z,5.90
2023-03-29T10:40:16.294Z,6.00
2023-03-29T10:43:29.821Z,6.10
2023-03-29T10:46:42.360Z,6.30
2023-03-29T10:49:29.876Z,6.40
2023-03-29T10:52:17.841Z,6.50
2023-03-29T10:55:05.854Z,6.40
2023-03-29T10:58:15.617Z,6.50
2023-03-29T11:01:04.426Z,6.70
2023-03-29T11:04:09.365Z,6.80
2023-03-29T11:07:53.968Z,7.00
2023-03-29T11:10:57.953Z,7.00
2023-03-29T11:14:41.251Z,7.00
2023-03-29T11:18:01.368Z,7.10
2023-03-29T11:21:23.836Z,7.10
2023-03-29T11:24:27.971Z,7.20
2023-03-29T11:28:02.018Z,7.10
2023-03-29T11:31:02.520Z,7.10
2023-03-29T11:34:15.690Z,7.10
2023-03-29T11:37:05.839Z,7.30
2023-03-29T11:40:34.342Z,7.20
2023-03-29T11:43:41.512Z,7.20
2023-03-29T11:47:17.909Z,7.20
2023-03-29T11:50:33.088Z,7.30
2023-03-29T11:53:42.347Z,7.30
2023-03-29T11:56:48.701Z,7.10
2023-03-29T11:59:45.307Z,7.00
2023-03-29T12:02:37.750Z,7.10
2023-03-29T12:05:39.777Z,7.30
2023-03-29T12:08:58.806Z,7.40
2023-03-29T12:11:57.726Z,7.50
2023-03-29T12:15:03.547Z,7.50
2023-03-29T12:18:40.058Z,7.50
2023-03-29T12:21:31.124Z,7.20
2023-03-29T12:24:20.992Z,7.30
2023-03-29T12:27:49.250Z,7.20
2023-03-29T12:31:16.899Z,7.20
2023-03-29T12:34:19.634Z,7.20
2023-03-29T12:37:32.049Z,7.30
2023-03-29T12:40:25.295Z,7.40
2023-03-29T12:43:38.398Z,7.50
2023-03-29T12:46:31.897Z,7.60
2023-03-29T12:49:39.523Z,7.80
2023-03-29T12:52:37.194Z,8.10
2023-03-29T12:55:47.726Z,8.30
2023-03-29T12:58:59.670Z,8.50
2023-03-29T13:02:17.660Z,8.70
2023-03-29T13:05:29.707Z,8.60
2023-03-29T13:08:27.698Z,8.60
2023-03-29T13:11:42.713Z,8.70
2023-03-29T13:14:36.726Z,8.60
2023-03-29T13:18:16.312Z,8.50
2023-03-29T13:21:19.024Z,8.50
2023-03-29T13:24:35.912Z,8.60
2023-03-29T13:27:45.568Z,8.80
2023-03-29T13:31:04.918Z,9.00
2023-03-29T13:34:07.176Z,9.00
2023-03-29T13:37:11.437Z,9.10
2023-03-29T13:39:59.286Z,9.30
2023-03-29T13:43:09.217Z,9.30
2023-03-29T13:45:59.673Z,9.40
2023-03-29T13:49:24.484Z,9.60
2023-03-29T13:52:40.119Z,9.40
2023-03-29T13:55:35.500Z,9.50
2023-03-29T13:58:42.866Z,9.40
2023-03-29T14:01:57.388Z,9.50
2023-03-29T14:04:51.472Z,9.40
2023-03-29T14:07:47.024Z,9.30
2023-03-29T14:10:45.009Z,9.20
2023-03-29T14:13:33.616Z,9.00
2023-03-29T14:16:22.133Z,9.10
2023-03-29T14:19:34.237Z,9.00
2023-03-29T14:22:22.152Z,9.00
2023-03-29T14:25:21.332Z,8.90
2023-03-29T14:28:28.100Z,9.00
2023-03-29T14:31:38.721Z,9.00
2023-03-29T14:34:28.779Z,9.10
2023-03-29T14:37:26.962Z,9.10
2023-03-29T14:40:20.628Z,9.30
2023-03-29T14:43:08.822Z,9.40
2023-03-29T14:45:58.035Z,9.50
2023-03-29T14:48:46.380Z,9.50
2023-03-29T14:51:34.427Z,9.50
2023-03-29T14:54:32.925Z,9.60
2023-03-29T14:57:27.284Z,9.70
2023-03-29T15:00:35.111Z,9.70
2023-03-29T15:03:26.406Z,9.70
2023-03-29T15:06:14.782Z,9.60
2023-03-29T15:09:06.074Z,9.70
2023-03-29T15:11:57.218Z,9.80
2023-03-29T15:14:45.723Z,9.90
2023-03-29T15:17:50.320Z,9.90
2023-03-29T15:20:41.335Z,9.80
2023-03-29T15:23:39.430Z,9.80
2023-03-29T15:26:35.364Z,9.80
2023-03-29T15:29:26.080Z,9.80
2023-03-29T15:32:34.263Z,9.70
2023-03-29T15:35:25.605Z,9.60
2023-03-29T15:38:13.587Z,9.50
2023-03-29T15:41:01.721Z,9.50
2023-03-29T15:43:49.284Z,9.40
2023-03-29T15:46:37.545Z,9.30
2023-03-29T15:49:26.258Z,9.30
2023-03-29T15:52:13.971Z,9.10
2023-03-29T15:55:01.551Z,9.00
2023-03-29T15:57:52.083Z,9.00
2023-03-29T16:00:43.620Z,9.00
2023-03-29T16:03:31.171Z,9.00
2023-03-29T16:06:18.618Z,9.00
2023-03-29T16:09:07.213Z,8.80
2023-03-29T16:11:54.770Z,8.60
2023-03-29T16:14:43.257Z,8.50
2023-03-29T16:17:31.111Z,8.40
2023-03-29T16:20:20.224Z,8.30
2023-03-29T16:23:09.787Z,8.30
2023-03-29T16:25:59.307Z,8.20
2023-03-29T16:28:46.763Z,8.20
2023-03-29T16:31:34.320Z,8.20
2023-03-29T16:34:22.891Z,8.10
2023-03-29T16:37:10.412Z,8.00
2023-03-29T16:39:58.372Z,8.00
2023-03-29T16:42:45.843Z,7.90
2023-03-29T16:45:33.371Z,7.90
2023-03-29T16:48:20.888Z,7.80
2023-03-29T16:51:10.797Z,7.70
2023-03-29T16:54:00.780Z,7.70
2023-03-29T16:56:48.388Z,7.70
2023-03-29T16:59:36.520Z,7.60
2023-03-29T17:02:24.094Z,7.50
2023-03-29T17:05:12.977Z,7.50
2023-03-29T17:08:00.568Z,7.50
2023-03-29T17:10:54.086Z,7.50
2023-03-29T17:13:41.546Z,7.40
2023-03-29T17:16:29.278Z,7.40
2023-03-29T17:19:16.959Z,7.30
2023-03-29T17:22:04.429Z,7.20
2023-03-29T17:24:52.416Z,7.20
2023-03-29T17:27:40.510Z,7.10
2023-03-29T17:30:28.046Z,7.10
2023-03-29T17:33:15.634Z,7.10
2023-03-29T17:36:05.035Z,7.00
2023-03-29T17:38:54.862Z,7.00
2023-03-29T17:41:42.807Z,7.00
2023-03-29T17:44:31.261Z,6.90
2023-03-29T17:47:18.705Z,6.90
2023-03-29T17:50:09.288Z,6.80
2023-03-29T17:52:56.792Z,6.80
2023-03-29T17:55:44.588Z,6.80
2023-03-29T17:58:32.058Z,6.80
2023-03-29T18:01:20.591Z,6.70
2023-03-29T18:04:08.227Z,6.70
2023-03-29T18:06:55.712Z,6.70
2023-03-29T18:09:43.477Z,6.70
2023-03-29T18:12:31.031Z,6.70
2023-03-29T18:15:18.671Z,6.60
2023-03-29T18:18:06.424Z,6.60
2023-03-29T18:20:54.215Z,6.60
2023-03-29T18:23:47.574Z,6.60
2023-03-29T18:26:35.532Z,6.50
2023-03-29T18:29:23.768Z,6.50
2023-03-29T18:32:12.215Z,6.50
2023-03-29T18:34:59.770Z,6.50
2023-03-29T18:37:47.275Z,6.50
2023-03-29T18:40:34.746Z,6.50
2023-03-29T18:43:22.156Z,6.50
2023-03-29T18:46:09.655Z,6.50
2023-03-29T18:48:59.360Z,6.50
2023-03-29T18:51:47.756Z,6.50
2023-03-29T18:54:35.749Z,6.50
2023-03-29T18:57:23.248Z,6.50
2023-03-29T19:00:14.015Z,6.50
2023-03-29T19:03:02.543Z,6.50
2023-03-29T19:05:55.412Z,6.50
2023-03-29T19:08:43.145Z,6.50
2023-03-29T19:11:30.844Z,6.50
2023-03-29T19:14:23.732Z,6.50
2023-03-29T19:17:11.371Z,6.50
2023-03-29T19:19:59.044Z,6.40
2023-03-29T19:22:46.755Z,6.40
2023-03-29T19:25:34.514Z,6.40
2023-03-29T19:28:22.587Z,6.30
2023-03-29T19:31:10.230Z,6.30
2023-03-29T19:33:57.729Z,6.20
2023-03-29T19:36:45.658Z,6.20
2023-03-29T19:39:33.117Z,6.20
2023-03-29T19:42:20.856Z,6.10
2023-03-29T19:45:10.038Z,6.10
2023-03-29T19:48:02.848Z,6.00
2023-03-29T19:50:51.571Z,5.90
2023-03-29T19:53:41.541Z,5.90
2023-03-29T19:56:29.319Z,5.90
2023-03-29T19:59:17.753Z,5.90
2023-03-29T20:02:05.364Z,5.90
2023-03-29T20:04:53.094Z,5.80
2023-03-29T20:07:40.673Z,5.80
2023-03-29T20:10:28.133Z,5.90
2023-03-29T20:13:21.821Z,5.80
2023-03-29T20:16:18.663Z,5.80
2023-03-29T20:19:07.239Z,5.80
2023-03-29T20:21:57.706Z,5.80
2023-03-29T20:24:45.652Z,5.80
2023-03-29T20:27:34.452Z,5.70
2023-03-29T20:30:21.949Z,5.70
2023-03-29T20:33:09.453Z,5.70
2023-03-29T20:35:57.141Z,5.60
2023-03-29T20:38:46.072Z,5.60
2023-03-29T20:41:33.938Z,5.50
2023-03-29T20:44:28.534Z,5.50
2023-03-29T20:47:19.410Z,5.50
2023-03-29T20:50:10.678Z,5.50
2023-03-29T20:53:02.250Z,5.60
2023-03-29T20:55:49.751Z,5.60
2023-03-29T20:58:42.089Z,5.60
2023-03-29T21:01:30.746Z,5.60
2023-03-29T21:04:19.180Z,5.60
2023-03-29T21:07:08.511Z,5.60
2023-03-29T21:09:56.304Z,5.60
2023-03-29T21:12:43.859Z,5.60
2023-03-29T21:15:32.257Z,5.60
2023-03-29T21:18:20.123Z,5.60
2023-03-29T21:21:09.959Z,5.60
2023-03-29T21:23:57.668Z,5.60
2023-03-29T21:26:45.282Z,5.60
2023-03-29T21:29:32.841Z,5.70
2023-03-29T21:32:20.524Z,5.70
2023-03-29T21:35:09.446Z,5.70
2023-03-29T21:37:56.866Z,5.70
2023-03-29T21:40:44.375Z,5.80
2023-03-29T21:43:31.920Z,5.80
2023-03-29T21:46:19.397Z,5.80
2023-03-29T21:49:06.847Z,5.80
2023-03-29T21:51:54.312Z,5.80
2023-03-29T21:54:41.837Z,5.90
2023-03-29T21:57:29.447Z,5.90
2023-03-29T22:00:18.091Z,6.10
2023-03-29T22:03:06.165Z,6.20
2023-03-29T22:06:08.606Z,6.30
2023-03-29T22:08:56.163Z,6.30
2023-03-29T22:11:44.970Z,6.40
2023-03-29T22:14:37.547Z,6.40
2023-03-29T22:17:26.735Z,6.40
2023-03-29T22:20:15.336Z,6.40
2023-03-29T22:23:03.457Z,6.40
2023-03-29T22:25:51.494Z,6.40
2023-03-29T22:28:40.524Z,6.50
2023-03-29T22:31:29.708Z,6.50
2023-03-29T22:34:17.477Z,6.50
2023-03-29T22:37:05.710Z,6.50
2023-03-29T22:39:53.263Z,6.50
2023-03-29T22:42:40.888Z,6.50
2023-03-29T22:45:28.469Z,6.40
2023-03-29T22:48:16.062Z,6.40
2023-03-29T22:51:05.976Z,6.40
2023-03-29T22:53:53.727Z,6.30
2023-03-29T22:56:41.443Z,6.30
2023-03-29T22:59:29.113Z,6.30
2023-03-29T23:02:16.592Z,6.20
2023-03-29T23:05:04.248Z,6.20
2023-03-29T23:07:51.685Z,6.10
2023-03-29T23:10:39.127Z,6.00
2023-03-29T23:13:29.445Z,5.90
2023-03-29T23:16:17.578Z,5.90
2023-03-29T23:19:05.137Z,5.90
2023-03-29T23:21:52.832Z,5.90
2023-03-29T23:24:40.555Z,5.90
2023-03-29T23:27:28.140Z,5.90
2023-03-29T23:30:16.097Z,5.90
2023-03-29T23:33:03.695Z,5.90
2023-03-29T23:35:52.103Z,5.90
2023-03-29T23:38:42.472Z,5.90
2023-03-29T23:41:30.769Z,5.90
2023-03-29T23:44:18.434Z,5.90
2023-03-29T23:47:06.232Z,6.00
2023-03-29T23:49:54.792Z,6.00
2023-03-29T23:52:42.522Z,6.00
2023-03-29T23:55:30.076Z,6.00
2023-03-29T23:58:17.568Z,5.90
